createdAt,value
2019-04-25T00:01:59.012Z,9.85
2019-04-25T00:04:28.787Z,11.35
2019-04-25T00:06:58.306Z,13.55
2019-04-25T00:09:31.724Z,11.85
2019-04-25T00:12:02.264Z,9.63
2019-04-25T00:14:32.114Z,11.70
2019-04-25T00:17:01.796Z,11.18
2019-04-25T00:19:31.692Z,12.45
2019-04-25T00:22:29.012Z,12.43
2019-04-25T00:25:18.075Z,16.25
2019-04-25T00:27:48.523Z,11.45
2019-04-25T00:30:19.100Z,10.85
2019-04-25T00:32:49.292Z,12.23
2019-04-25T00:35:18.922Z,15.43
2019-04-25T00:37:48.431Z,10.80
2019-04-25T00:40:18.422Z,13.83
2019-04-25T00:42:48.306Z,13.38
2019-04-25T00:45:17.932Z,13.30
2019-04-25T00:47:47.766Z,13.00
2019-04-25T00:50:17.264Z,9.25
2019-04-25T00:52:46.733Z,9.43
2019-04-25T00:55:26.126Z,10.08
2019-04-25T00:57:48.958Z,9.60
2019-04-25T01:00:35.446Z,12.47
2019-04-25T01:03:07.370Z,11.80
2019-04-25T01:05:36.875Z,8.78
2019-04-25T01:08:06.351Z,13.85
2019-04-25T01:10:35.821Z,12.68
2019-04-25T01:13:06.487Z,8.83
2019-04-25T01:15:35.957Z,10.75
2019-04-25T01:18:05.867Z,12.65
2019-04-25T01:20:35.335Z,13.18
2019-04-25T01:23:04.841Z,11.40
2019-04-25T01:25:41.748Z,8.33
2019-04-25T01:28:05.819Z,13.32
2019-04-25T01:30:35.848Z,7.80
2019-04-25T01:33:06.235Z,11.25
2019-04-25T01:35:43.086Z,11.70
2019-04-25T01:38:34.317Z,10.90
2019-04-25T01:41:20.105Z,11.15
2019-04-25T01:43:57.691Z,19.95
2019-04-25T01:46:27.919Z,10.20
2019-04-25T01:48:57.406Z,12.23
2019-04-25T01:51:26.879Z,11.05
2019-04-25T01:53:56.820Z,10.05
2019-04-25T01:56:26.549Z,11.53
2019-04-25T01:58:56.028Z,11.05
2019-04-25T02:01:25.533Z,10.60
2019-04-25T02:03:55.557Z,11.97
2019-04-25T02:06:25.028Z,10.35
2019-04-25T02:08:55.327Z,9.83
2019-04-25T02:11:34.881Z,12.65
2019-04-25T02:14:05.223Z,14.55
2019-04-25T02:16:35.399Z,9.13
2019-04-25T02:19:05.619Z,11.18
2019-04-25T02:21:35.125Z,10.23
2019-04-25T02:24:05.714Z,12.13
2019-04-25T02:26:35.287Z,10.85
2019-04-25T02:29:05.063Z,14.87
2019-04-25T02:31:35.006Z,14.68
2019-04-25T02:34:08.161Z,13.90
2019-04-25T02:36:35.753Z,12.90
2019-04-25T02:39:11.296Z,13.50
2019-04-25T02:41:40.779Z,11.73
2019-04-25T02:44:10.318Z,9.68
2019-04-25T02:47:08.483Z,11.53
2019-04-25T02:49:58.535Z,12.35
2019-04-25T02:52:34.412Z,11.38
2019-04-25T02:55:08.959Z,12.70
2019-04-25T02:57:35.703Z,13.77
2019-04-25T03:00:08.803Z,15.53
2019-04-25T03:02:38.480Z,11.90
2019-04-25T03:05:09.938Z,11.45
2019-04-25T03:07:39.519Z,13.75
2019-04-25T03:10:11.626Z,16.42
2019-04-25T03:12:41.251Z,10.38
2019-04-25T03:15:11.235Z,19.50
2019-04-25T03:17:40.702Z,14.18
2019-04-25T03:20:21.035Z,13.63
2019-04-25T03:22:50.689Z,11.53
2019-04-25T03:25:20.181Z,14.25
2019-04-25T03:27:49.810Z,11.10
2019-04-25T03:30:19.429Z,14.87
2019-04-25T03:32:51.464Z,13.70
2019-04-25T03:35:20.103Z,12.03
2019-04-25T03:37:49.644Z,11.40
2019-04-25T03:40:19.164Z,10.73
2019-04-25T03:42:48.678Z,12.50
2019-04-25T03:45:18.208Z,11.88
2019-04-25T03:47:47.690Z,13.08
2019-04-25T03:50:17.216Z,15.75
2019-04-25T03:52:46.878Z,13.40
2019-04-25T03:55:16.378Z,14.25
2019-04-25T03:57:45.851Z,12.55
2019-04-25T04:00:15.905Z,11.90
2019-04-25T04:02:45.388Z,14.73
2019-04-25T04:05:15.067Z,15.67
2019-04-25T04:07:44.567Z,10.10
2019-04-25T04:10:15.441Z,13.90
2019-04-25T04:12:45.005Z,14.28
2019-04-25T04:15:16.001Z,14.70
2019-04-25T04:17:50.446Z,11.63
2019-04-25T04:20:36.780Z,13.45
2019-04-25T04:23:13.265Z,14.70
2019-04-25T04:25:43.347Z,12.77
2019-04-25T04:28:14.094Z,12.98
2019-04-25T04:30:45.409Z,12.40
2019-04-25T04:33:25.709Z,12.85
2019-04-25T04:35:46.501Z,12.15
2019-04-25T04:38:16.454Z,15.72
2019-04-25T04:40:46.147Z,13.90
2019-04-25T04:43:16.541Z,10.53
2019-04-25T04:45:46.189Z,12.95
2019-04-25T04:48:16.650Z,14.50
2019-04-25T04:50:46.435Z,12.78
2019-04-25T04:53:16.323Z,14.80
2019-04-25T04:55:46.619Z,13.90
2019-04-25T04:58:17.259Z,12.28
2019-04-25T05:00:47.021Z,11.50
2019-04-25T05:03:26.740Z,10.45
2019-04-25T05:06:16.184Z,13.30
2019-04-25T05:08:50.653Z,13.15
2019-04-25T05:11:20.384Z,11.43
2019-04-25T05:13:49.935Z,12.00
2019-04-25T05:16:19.867Z,11.33
2019-04-25T05:18:50.904Z,14.18
2019-04-25T05:21:20.631Z,16.00
2019-04-25T05:23:50.378Z,11.75
2019-04-25T05:26:25.540Z,12.65
2019-04-25T05:28:55.565Z,14.05
2019-04-25T05:31:47.020Z,12.68
2019-04-25T05:34:17.237Z,15.98
2019-04-25T05:36:48.135Z,12.00
2019-04-25T05:39:18.187Z,14.25
2019-04-25T05:42:10.835Z,11.78
2019-04-25T05:44:40.498Z,9.45
2019-04-25T05:47:10.319Z,8.30
2019-04-25T05:49:39.967Z,13.78
2019-04-25T05:52:09.648Z,14.93
2019-04-25T05:54:39.237Z,14.75
2019-04-25T05:57:09.016Z,12.50
2019-04-25T05:59:38.641Z,14.78
2019-04-25T06:02:08.494Z,14.73
2019-04-25T06:04:38.004Z,19.05
2019-04-25T06:07:07.554Z,13.25
2019-04-25T06:09:56.022Z,10.50
2019-04-25T06:12:37.382Z,17.55
2019-04-25T06:15:07.504Z,13.58
2019-04-25T06:17:55.498Z,11.95
2019-04-25T06:20:27.627Z,12.15
2019-04-25T06:23:03.248Z,18.23
2019-04-25T06:25:39.152Z,14.28
2019-04-25T06:28:07.490Z,12.85
2019-04-25T06:30:37.171Z,13.55
2019-04-25T06:33:06.652Z,11.48
2019-04-25T06:35:36.449Z,8.75
2019-04-25T06:38:05.956Z,11.48
2019-04-25T06:40:35.467Z,12.65
2019-04-25T06:43:05.261Z,11.53
2019-04-25T06:45:56.752Z,11.60
2019-04-25T06:48:51.101Z,12.05
2019-04-25T06:51:22.371Z,21.50
2019-04-25T06:53:53.419Z,13.53
2019-04-25T06:56:24.853Z,15.40
2019-04-25T06:58:55.007Z,17.75
2019-04-25T07:01:25.278Z,16.37
2019-04-25T07:03:55.807Z,14.70
2019-04-25T07:06:26.093Z,18.87
2019-04-25T07:08:56.089Z,13.83
2019-04-25T07:11:26.178Z,13.83
2019-04-25T07:13:56.480Z,10.50
2019-04-25T07:16:26.076Z,12.88
2019-04-25T07:18:55.896Z,14.43
2019-04-25T07:21:25.944Z,18.48
2019-04-25T07:23:55.497Z,13.70
2019-04-25T07:26:39.834Z,17.27
2019-04-25T07:29:28.547Z,10.65
2019-04-25T07:32:11.432Z,13.25
2019-04-25T07:34:40.929Z,13.13
2019-04-25T07:37:10.378Z,9.55
2019-04-25T07:39:39.969Z,11.38
2019-04-25T07:42:09.569Z,17.37
2019-04-25T07:44:49.800Z,15.18
2019-04-25T07:47:10.373Z,9.10
2019-04-25T07:49:40.044Z,14.07
2019-04-25T07:52:11.544Z,11.57
2019-04-25T07:54:40.690Z,16.57
2019-04-25T07:57:10.180Z,14.47
2019-04-25T07:59:40.030Z,12.75
2019-04-25T08:02:09.533Z,9.95
2019-04-25T08:04:39.093Z,18.57
2019-04-25T08:07:08.593Z,11.15
2019-04-25T08:09:38.095Z,14.03
2019-04-25T08:12:07.609Z,12.98
2019-04-25T08:14:56.099Z,9.93
2019-04-25T08:17:47.257Z,15.20
2019-04-25T08:20:17.653Z,8.85
2019-04-25T08:22:55.901Z,17.62
2019-04-25T08:25:18.489Z,14.73
2019-04-25T08:27:48.112Z,19.30
2019-04-25T08:30:17.778Z,13.90
2019-04-25T08:32:47.556Z,11.15
2019-04-25T08:35:17.086Z,13.25
2019-04-25T08:37:46.622Z,10.95
2019-04-25T08:40:18.641Z,11.00
2019-04-25T08:42:48.409Z,13.50
2019-04-25T08:45:18.121Z,16.15
2019-04-25T08:47:47.726Z,11.50
2019-04-25T08:50:34.111Z,12.75
2019-04-25T08:53:03.972Z,14.20
2019-04-25T08:55:48.302Z,13.55
2019-04-25T08:58:36.491Z,15.98
2019-04-25T09:01:20.112Z,15.15
2019-04-25T09:03:54.539Z,13.22
2019-04-25T09:06:24.441Z,9.68
2019-04-25T09:08:54.152Z,13.43
2019-04-25T09:11:24.478Z,17.92
2019-04-25T09:13:54.221Z,14.73
2019-04-25T09:16:24.017Z,16.05
2019-04-25T09:18:53.973Z,17.95
2019-04-25T09:21:23.879Z,10.90
2019-04-25T09:23:53.624Z,13.95
2019-04-25T09:26:24.128Z,12.05
2019-04-25T09:28:53.819Z,12.03
2019-04-25T09:31:23.653Z,13.58
2019-04-25T09:33:55.612Z,15.05
2019-04-25T09:36:25.105Z,13.20
2019-04-25T09:38:56.184Z,19.57
2019-04-25T09:41:25.719Z,16.82
2019-04-25T09:43:59.221Z,15.03
2019-04-25T09:46:31.607Z,12.47
2019-04-25T09:49:18.125Z,13.93
2019-04-25T09:51:54.811Z,12.43
2019-04-25T09:54:33.479Z,12.33
2019-04-25T09:57:24.947Z,13.18
2019-04-25T09:59:54.453Z,10.70
2019-04-25T10:02:24.096Z,16.30
2019-04-25T10:04:55.182Z,15.63
2019-04-25T10:07:24.894Z,9.88
2019-04-25T10:09:54.750Z,13.22
2019-04-25T10:12:24.391Z,15.83
2019-04-25T10:15:05.125Z,15.63
2019-04-25T10:17:34.668Z,12.75
2019-04-25T10:20:04.573Z,11.25
2019-04-25T10:22:34.227Z,14.53
2019-04-25T10:25:04.277Z,17.55
2019-04-25T10:27:34.287Z,10.15
2019-04-25T10:30:16.015Z,13.65
2019-04-25T10:32:35.596Z,8.35
2019-04-25T10:35:05.572Z,13.75
2019-04-25T10:37:35.383Z,10.95
2019-04-25T10:40:07.160Z,10.45
2019-04-25T10:42:36.796Z,13.15
2019-04-25T10:45:06.586Z,13.25
2019-04-25T10:47:36.102Z,13.08
2019-04-25T10:50:06.016Z,13.50
2019-04-25T10:52:35.530Z,13.35
2019-04-25T10:55:05.356Z,13.05
2019-04-25T10:57:34.826Z,14.83
2019-04-25T11:00:09.572Z,14.87
2019-04-25T11:02:39.206Z,14.65
2019-04-25T11:05:13.733Z,14.70
2019-04-25T11:07:43.326Z,21.12
2019-04-25T11:10:14.036Z,13.25
2019-04-25T11:12:45.429Z,12.30
2019-04-25T11:15:15.140Z,16.48
2019-04-25T11:17:45.822Z,11.38
2019-04-25T11:20:27.035Z,18.37
2019-04-25T11:22:56.601Z,15.78
2019-04-25T11:25:26.589Z,12.53
2019-04-25T11:27:56.075Z,18.60
2019-04-25T11:30:27.401Z,17.70
2019-04-25T11:32:58.135Z,12.58
2019-04-25T11:35:27.873Z,15.60
2019-04-25T11:37:59.373Z,17.17
2019-04-25T11:40:36.562Z,16.67
2019-04-25T11:43:06.174Z,15.32
2019-04-25T11:45:36.670Z,13.60
2019-04-25T11:48:06.357Z,11.70
2019-04-25T11:50:37.071Z,16.52
2019-04-25T11:53:06.751Z,10.43
2019-04-25T11:55:36.362Z,12.05
2019-04-25T11:58:05.982Z,17.02
2019-04-25T12:00:35.691Z,15.28
2019-04-25T12:03:05.471Z,19.87
2019-04-25T12:05:35.099Z,11.20
2019-04-25T12:08:04.869Z,14.05
2019-04-25T12:10:36.060Z,12.25
2019-04-25T12:13:05.625Z,18.87
2019-04-25T12:15:35.088Z,15.85
2019-04-25T12:18:04.730Z,14.38
2019-04-25T12:20:34.177Z,13.48
2019-04-25T12:23:08.671Z,12.05
2019-04-25T12:25:34.908Z,13.50
2019-04-25T12:28:05.625Z,11.68
2019-04-25T12:30:40.106Z,18.45
2019-04-25T12:33:18.406Z,17.25
2019-04-25T12:35:37.718Z,17.23
2019-04-25T12:38:07.190Z,14.28
2019-04-25T12:40:36.742Z,19.07
2019-04-25T12:43:06.357Z,13.88
2019-04-25T12:45:43.290Z,18.32
2019-04-25T12:48:15.336Z,16.05
2019-04-25T12:50:46.227Z,13.98
2019-04-25T12:53:16.193Z,12.90
2019-04-25T12:55:47.362Z,18.77
2019-04-25T12:58:16.920Z,16.45
2019-04-25T13:00:49.446Z,16.93
2019-04-25T13:03:17.590Z,15.03
2019-04-25T13:05:47.287Z,13.78
2019-04-25T13:08:17.058Z,11.93
2019-04-25T13:10:46.617Z,18.20
2019-04-25T13:13:17.530Z,13.83
2019-04-25T13:15:47.030Z,16.10
2019-04-25T13:18:16.509Z,14.47
2019-04-25T13:20:46.088Z,16.05
2019-04-25T13:23:15.537Z,17.45
2019-04-25T13:25:45.630Z,12.68
2019-04-25T13:28:36.857Z,11.38
2019-04-25T13:31:37.617Z,15.00
2019-04-25T13:34:10.677Z,15.28
2019-04-25T13:36:40.143Z,15.63
2019-04-25T13:39:17.116Z,19.35
2019-04-25T13:41:46.773Z,13.45
2019-04-25T13:44:16.445Z,13.78
2019-04-25T13:46:45.900Z,16.70
2019-04-25T13:49:15.830Z,14.95
2019-04-25T13:51:45.283Z,18.77
2019-04-25T13:54:14.991Z,15.00
2019-04-25T13:56:44.502Z,13.50
2019-04-25T13:59:14.077Z,12.53
2019-04-25T14:01:44.167Z,16.17
2019-04-25T14:04:14.208Z,18.00
2019-04-25T14:06:43.807Z,17.23
2019-04-25T14:09:17.232Z,16.35
2019-04-25T14:11:46.751Z,25.57
2019-04-25T14:14:16.224Z,14.38
2019-04-25T14:17:06.849Z,18.40
2019-04-25T14:19:54.107Z,12.63
2019-04-25T14:22:23.628Z,17.80
2019-04-25T14:24:54.071Z,16.93
2019-04-25T14:27:25.080Z,17.52
2019-04-25T14:29:55.021Z,15.30
2019-04-25T14:32:27.510Z,14.47
2019-04-25T14:34:55.824Z,16.82
2019-04-25T14:37:29.250Z,20.25
2019-04-25T14:39:56.731Z,15.08
2019-04-25T14:42:26.491Z,12.70
2019-04-25T14:44:56.290Z,14.00
2019-04-25T14:47:25.790Z,16.93
2019-04-25T14:49:55.567Z,17.85
2019-04-25T14:52:25.935Z,15.70
2019-04-25T14:55:23.736Z,17.57
2019-04-25T14:57:54.526Z,14.47
2019-04-25T15:00:30.390Z,14.85
2019-04-25T15:02:59.905Z,14.33
2019-04-25T15:05:29.428Z,15.88
2019-04-25T15:07:58.994Z,16.48
2019-04-25T15:10:28.656Z,17.52
2019-04-25T15:12:58.093Z,14.90
2019-04-25T15:15:27.652Z,17.77
2019-04-25T15:17:57.139Z,15.68
2019-04-25T15:20:26.616Z,17.02
2019-04-25T15:22:56.124Z,20.68
2019-04-25T15:25:26.180Z,16.60
2019-04-25T15:27:55.741Z,21.45
2019-04-25T15:30:29.427Z,14.38
2019-04-25T15:32:59.094Z,13.00
2019-04-25T15:35:38.176Z,23.60
2019-04-25T15:38:12.789Z,15.75
2019-04-25T15:40:47.579Z,14.28
2019-04-25T15:43:27.555Z,15.72
2019-04-25T15:46:04.629Z,16.97
2019-04-25T15:48:34.178Z,18.60
2019-04-25T15:51:03.781Z,15.30
2019-04-25T15:53:33.239Z,18.32
2019-04-25T15:56:02.789Z,19.80
2019-04-25T15:58:32.381Z,20.68
2019-04-25T16:01:01.905Z,17.00
2019-04-25T16:03:31.400Z,17.00
2019-04-25T16:06:01.008Z,12.68
2019-04-25T16:08:30.942Z,19.50
2019-04-25T16:11:00.541Z,14.53
2019-04-25T16:13:30.203Z,17.50
2019-04-25T16:16:00.217Z,21.70
2019-04-25T16:18:30.517Z,19.27
2019-04-25T16:21:00.218Z,18.92
2019-04-25T16:23:30.261Z,20.40
2019-04-25T16:25:59.756Z,17.45
2019-04-25T16:28:29.284Z,19.82
2019-04-25T16:30:58.951Z,25.37
2019-04-25T16:33:29.116Z,22.93
2019-04-25T16:35:58.760Z,19.48
2019-04-25T16:38:29.672Z,17.77
2019-04-25T16:40:59.267Z,21.97
2019-04-25T16:43:31.143Z,14.90
2019-04-25T16:46:00.662Z,16.07
2019-04-25T16:48:31.156Z,18.82
2019-04-25T16:51:00.958Z,18.40
2019-04-25T16:53:32.655Z,22.35
2019-04-25T16:56:02.130Z,14.68
2019-04-25T16:58:31.592Z,15.88
2019-04-25T17:01:09.177Z,15.13
2019-04-25T17:03:38.678Z,18.55
2019-04-25T17:06:09.754Z,19.82
2019-04-25T17:13:32.164Z,22.93
2019-04-25T17:14:27.618Z,18.05
2019-04-25T17:17:14.071Z,18.20
2019-04-25T17:20:12.788Z,20.60
2019-04-25T17:22:44.115Z,20.20
2019-04-25T17:25:16.678Z,17.17
2019-04-25T17:27:46.435Z,21.12
2019-04-25T17:30:16.527Z,22.45
2019-04-25T17:33:03.719Z,19.20
2019-04-25T17:35:56.460Z,18.80
2019-04-25T17:38:33.999Z,16.67
2019-04-25T17:41:03.857Z,16.05
2019-04-25T17:43:34.234Z,16.00
2019-04-25T17:46:05.977Z,16.55
2019-04-25T17:48:36.143Z,16.17
2019-04-25T17:51:05.667Z,19.85
2019-04-25T17:53:35.177Z,20.48
2019-04-25T17:56:04.924Z,29.00
2019-04-25T17:58:34.625Z,26.07
2019-04-25T18:01:05.093Z,31.68
2019-04-25T18:03:34.977Z,45.55
2019-04-25T18:06:04.913Z,41.83
2019-04-25T18:08:35.561Z,28.80
2019-04-25T18:13:42.487Z,23.32
2019-04-25T18:16:20.767Z,28.40
2019-04-25T18:18:57.621Z,31.55
2019-04-25T18:21:30.863Z,21.12
2019-04-25T18:24:29.128Z,28.12
2019-04-25T18:27:14.697Z,28.57
2019-04-25T18:29:44.531Z,22.27
2019-04-25T18:32:19.296Z,19.95
2019-04-25T18:35:12.870Z,19.55
2019-04-25T18:38:07.332Z,22.07
2019-04-25T18:40:40.480Z,20.82
2019-04-25T18:43:16.110Z,19.87
2019-04-25T18:45:52.402Z,16.45
2019-04-25T18:48:34.489Z,16.97
2019-04-25T18:51:04.160Z,15.32
2019-04-25T18:53:57.698Z,19.02
2019-04-25T18:56:43.237Z,23.65
2019-04-25T18:59:34.247Z,16.07
2019-04-25T19:02:37.520Z,23.45
2019-04-25T19:05:42.837Z,21.87
2019-04-25T19:08:04.500Z,19.05
2019-04-25T19:10:36.042Z,23.77
2019-04-25T19:13:12.876Z,24.67
2019-04-25T19:18:34.263Z,27.27
2019-04-25T19:21:02.850Z,17.67
2019-04-25T19:23:40.483Z,22.35
2019-04-25T19:26:06.596Z,17.30
2019-04-25T19:28:40.084Z,22.02
2019-04-25T19:31:11.614Z,19.80
2019-04-25T19:33:45.452Z,28.25
2019-04-25T19:36:29.265Z,17.60
2019-04-25T19:39:25.972Z,19.02
2019-04-25T19:48:30.505Z,26.57
2019-04-25T19:50:15.512Z,26.02
2019-04-25T19:52:45.653Z,20.08
2019-04-25T19:55:16.422Z,23.83
2019-04-25T19:57:52.491Z,21.52
2019-04-25T20:00:19.300Z,30.30
2019-04-25T20:02:56.321Z,25.37
2019-04-25T20:05:33.382Z,21.35
2019-04-25T20:08:20.203Z,24.92
2019-04-25T20:11:06.726Z,25.90
2019-04-25T20:13:27.737Z,23.90
2019-04-25T20:15:57.933Z,23.98
2019-04-25T20:18:25.985Z,24.98
2019-04-25T20:20:58.243Z,28.25
2019-04-25T20:23:27.915Z,23.50
2019-04-25T20:25:58.617Z,23.60
2019-04-25T20:28:30.781Z,28.32
2019-04-25T20:31:00.754Z,24.12
2019-04-25T20:33:32.604Z,23.83
2019-04-25T20:36:17.690Z,30.70
2019-04-25T20:38:44.814Z,27.58
2019-04-25T20:41:18.714Z,26.40
2019-04-25T20:43:48.843Z,28.23
2019-04-25T20:46:22.222Z,22.10
2019-04-25T20:49:02.066Z,27.17
2019-04-25T20:51:33.736Z,23.27
2019-04-25T20:54:05.776Z,26.62
2019-04-25T20:56:53.019Z,24.50
2019-04-25T20:59:16.499Z,35.00
2019-04-25T21:02:05.965Z,24.02
2019-04-25T21:10:06.155Z,21.45
2019-04-25T21:12:40.978Z,31.52
2019-04-25T21:18:26.261Z,22.67
2019-04-25T21:20:57.057Z,24.90
2019-04-25T21:23:34.949Z,22.02
2019-04-25T21:26:30.028Z,25.32
2019-04-25T21:29:34.413Z,21.93
2019-04-25T21:31:58.835Z,20.97
2019-04-25T21:34:33.225Z,24.00
2019-04-25T21:43:31.522Z,23.05
2019-04-25T21:46:14.139Z,22.80
2019-04-25T21:48:43.964Z,24.35
2019-04-25T21:51:45.818Z,22.05
2019-04-25T21:54:16.922Z,22.85
2019-04-25T22:05:19.284Z,26.60
2019-04-25T22:10:40.747Z,31.27
2019-04-25T22:13:16.853Z,26.37
2019-04-25T22:15:58.169Z,25.45
2019-04-25T22:18:46.192Z,23.73
2019-04-25T22:27:05.673Z,24.80
2019-04-25T22:35:36.149Z,22.37
2019-04-25T22:38:08.629Z,26.48
2019-04-25T22:40:48.239Z,25.27
2019-04-25T22:43:27.160Z,29.57
2019-04-25T22:46:00.802Z,23.87
2019-04-25T22:48:49.847Z,23.60
2019-04-25T22:51:22.056Z,30.15
2019-04-25T22:53:53.350Z,24.35
2019-04-25T22:56:24.584Z,24.27
2019-04-25T22:58:54.275Z,26.10
2019-04-25T23:01:43.061Z,26.35
2019-04-25T23:04:28.479Z,25.43
2019-04-25T23:08:07.938Z,30.92
2019-04-25T23:10:12.365Z,24.67
2019-04-25T23:12:42.147Z,25.75
2019-04-25T23:15:13.017Z,23.60
2019-04-25T23:17:42.861Z,25.88
2019-04-25T23:20:19.273Z,25.40
2019-04-25T23:25:55.854Z,22.00
2019-04-25T23:29:18.882Z,21.77
2019-04-25T23:34:01.850Z,22.75
2019-04-25T23:36:33.639Z,21.65
2019-04-25T23:39:08.287Z,24.80
2019-04-25T23:41:39.723Z,21.73
2019-04-25T23:44:10.113Z,21.97
2019-04-25T23:46:44.701Z,21.33
2019-04-25T23:49:14.783Z,24.80
